EJU798L LFRN-LFMN
Flight info
| Callsign | EJU798L |
|---|---|
| Flight time | 1h 27m |
| Altitude | 33000 |
| Route | GODAN UN862 TERPO UM616 TUPAR/N0439F350 DCT DIDRU DCT BEBIX/N0429F340 DCT VALKU/N0436F350 DCT LERGA DCT LIQID DCT LATAM DCT TUNUR DCT NISAR |
| Aircraft | A320/M-SDE2E3FGHIJ1RWXYZ/LB1 |
Departure
| Time | 2026-05-05 07:19 |
|---|---|
| Airport | Rennes-Saint-Jacques Airport (LFRN) |
Arrival
| Time | 2026-05-05 08:47 |
|---|---|
| Airport | Nice-Côte d'Azur Airport (LFMN) |
| Time | Latitude | Longitude | Altitude | Speed | Heading |
|---|---|---|---|---|---|
| 2026-05-05 06:43 | 48.06911 | -1.72728 | 133 ft | 0 kts | 225° |
| 2026-05-05 07:10 | 48.06917 | -1.72720 | 133 ft | 4 kts | 226° |
| 2026-05-05 07:10 | 48.06933 | -1.72700 | 133 ft | 4 kts | 210° |
| 2026-05-05 07:10 | 48.06957 | -1.72688 | 133 ft | 4 kts | 163° |
| 2026-05-05 07:10 | 48.06975 | -1.72710 | 133 ft | 4 kts | 107° |
| 2026-05-05 07:11 | 48.06978 | -1.72726 | 133 ft | 1 kts | 101° |
| 2026-05-05 07:13 | 48.06977 | -1.72719 | 133 ft | 2 kts | 101° |
| 2026-05-05 07:13 | 48.06972 | -1.72677 | 133 ft | 6 kts | 100° |
| 2026-05-05 07:14 | 48.06963 | -1.72599 | 133 ft | 9 kts | 101° |
| 2026-05-05 07:14 | 48.06948 | -1.72488 | 133 ft | 13 kts | 100° |
| 2026-05-05 07:14 | 48.06933 | -1.72362 | 133 ft | 12 kts | 101° |
| 2026-05-05 07:14 | 48.06929 | -1.72250 | 133 ft | 10 kts | 85° |
| 2026-05-05 07:15 | 48.06947 | -1.72148 | 132 ft | 11 kts | 48° |
| 2026-05-05 07:15 | 48.07029 | -1.72104 | 125 ft | 15 kts | 33° |
| 2026-05-05 07:15 | 48.07069 | -1.71989 | 125 ft | 9 kts | 71° |
| 2026-05-05 07:15 | 48.07087 | -1.71909 | 126 ft | 8 kts | 71° |
| 2026-05-05 07:16 | 48.07070 | -1.71850 | 125 ft | 5 kts | 149° |
| 2026-05-05 07:16 | 48.07048 | -1.71847 | 128 ft | 2 kts | 185° |
| 2026-05-05 07:16 | 48.07028 | -1.71867 | 129 ft | 5 kts | 239° |
| 2026-05-05 07:16 | 48.07029 | -1.71926 | 128 ft | 6 kts | 279° |
| 2026-05-05 07:17 | 48.07032 | -1.71953 | 129 ft | 0 kts | 281° |
| 2026-05-05 07:18 | 48.07033 | -1.71957 | 129 ft | 1 kts | 281° |
| 2026-05-05 07:18 | 48.07033 | -1.71961 | 129 ft | 0 kts | 281° |
| 2026-05-05 07:19 | 48.07042 | -1.72029 | 125 ft | 31 kts | 281° |
| 2026-05-05 07:19 | 48.07135 | -1.72764 | 132 ft | 109 kts | 280° |
| 2026-05-05 07:19 | 48.07314 | -1.74175 | 238 ft | 156 kts | 282° |
| 2026-05-05 07:19 | 48.07518 | -1.75769 | 1038 ft | 157 kts | 285° |
| 2026-05-05 07:20 | 48.07721 | -1.77377 | 1840 ft | 159 kts | 287° |
| 2026-05-05 07:20 | 48.07908 | -1.79010 | 2614 ft | 161 kts | 280° |
| 2026-05-05 07:20 | 48.07657 | -1.80690 | 3334 ft | 177 kts | 240° |
| 2026-05-05 07:20 | 48.06698 | -1.81946 | 3738 ft | 196 kts | 213° |
| 2026-05-05 07:21 | 48.05477 | -1.83073 | 4003 ft | 218 kts | 212° |
| 2026-05-05 07:21 | 48.04108 | -1.84300 | 4291 ft | 238 kts | 211° |
| 2026-05-05 07:21 | 48.02664 | -1.85592 | 4979 ft | 243 kts | 211° |
| 2026-05-05 07:21 | 48.01211 | -1.86899 | 5790 ft | 244 kts | 211° |
| 2026-05-05 07:22 | 47.99755 | -1.88216 | 6606 ft | 246 kts | 211° |
| 2026-05-05 07:22 | 47.98292 | -1.89545 | 7377 ft | 246 kts | 211° |
| 2026-05-05 07:22 | 47.96774 | -1.90729 | 8155 ft | 247 kts | 200° |
| 2026-05-05 07:22 | 47.95160 | -1.91634 | 8988 ft | 247 kts | 198° |
| 2026-05-05 07:23 | 47.93453 | -1.92073 | 9573 ft | 259 kts | 174° |
| 2026-05-05 07:23 | 47.91688 | -1.91238 | 9887 ft | 279 kts | 144° |
| 2026-05-05 07:23 | 47.90335 | -1.89070 | 10166 ft | 299 kts | 120° |
| 2026-05-05 07:23 | 47.89273 | -1.86267 | 10449 ft | 320 kts | 118° |
| 2026-05-05 07:24 | 47.88192 | -1.83314 | 11065 ft | 328 kts | 118° |
| 2026-05-05 07:24 | 47.87097 | -1.80309 | 11809 ft | 332 kts | 118° |
| 2026-05-05 07:24 | 47.85988 | -1.77276 | 12579 ft | 335 kts | 118° |
| 2026-05-05 07:24 | 47.84864 | -1.74221 | 13328 ft | 338 kts | 118° |
| 2026-05-05 07:25 | 47.83720 | -1.71136 | 14024 ft | 342 kts | 118° |
| 2026-05-05 07:25 | 47.82563 | -1.68032 | 14699 ft | 344 kts | 119° |
| 2026-05-05 07:25 | 47.81400 | -1.64915 | 15391 ft | 345 kts | 119° |
| 2026-05-05 07:25 | 47.80231 | -1.61793 | 16091 ft | 346 kts | 119° |
| 2026-05-05 07:26 | 47.79052 | -1.58658 | 16757 ft | 349 kts | 119° |
| 2026-05-05 07:26 | 47.77861 | -1.55498 | 17411 ft | 352 kts | 119° |
| 2026-05-05 07:26 | 47.76661 | -1.52311 | 18060 ft | 354 kts | 119° |
| 2026-05-05 07:26 | 47.75453 | -1.49104 | 18631 ft | 357 kts | 119° |
| 2026-05-05 07:27 | 47.74240 | -1.45879 | 19198 ft | 359 kts | 119° |
| 2026-05-05 07:27 | 47.73020 | -1.42634 | 19768 ft | 361 kts | 119° |
| 2026-05-05 07:27 | 47.71791 | -1.39376 | 20343 ft | 362 kts | 120° |
| 2026-05-05 07:27 | 47.70554 | -1.36105 | 20900 ft | 364 kts | 120° |
| 2026-05-05 07:28 | 47.69309 | -1.32813 | 21436 ft | 366 kts | 120° |
| 2026-05-05 07:28 | 47.68061 | -1.29509 | 21973 ft | 368 kts | 120° |
| 2026-05-05 07:28 | 47.66804 | -1.26187 | 22496 ft | 370 kts | 120° |
| 2026-05-05 07:28 | 47.65537 | -1.22847 | 23038 ft | 372 kts | 120° |
| 2026-05-05 07:29 | 47.64260 | -1.19490 | 23562 ft | 374 kts | 120° |
| 2026-05-05 07:29 | 47.62981 | -1.16122 | 23990 ft | 376 kts | 120° |
| 2026-05-05 07:29 | 47.61693 | -1.12739 | 24425 ft | 377 kts | 120° |
| 2026-05-05 07:29 | 47.60399 | -1.09349 | 24856 ft | 378 kts | 120° |
| 2026-05-05 07:30 | 47.59101 | -1.05957 | 25275 ft | 380 kts | 120° |
| 2026-05-05 07:30 | 47.56484 | -0.99125 | 26109 ft | 382 kts | 120° |
| 2026-05-05 07:30 | 47.55172 | -0.95697 | 26516 ft | 384 kts | 120° |
| 2026-05-05 07:31 | 47.53852 | -0.92254 | 26916 ft | 385 kts | 120° |
| 2026-05-05 07:31 | 47.52526 | -0.88804 | 27318 ft | 387 kts | 120° |
| 2026-05-05 07:31 | 47.51190 | -0.85334 | 27701 ft | 388 kts | 120° |
| 2026-05-05 07:31 | 47.49850 | -0.81856 | 28081 ft | 390 kts | 120° |
| 2026-05-05 07:32 | 47.48505 | -0.78364 | 28469 ft | 392 kts | 120° |
| 2026-05-05 07:32 | 47.47152 | -0.74860 | 28842 ft | 393 kts | 120° |
| 2026-05-05 07:32 | 47.45794 | -0.71350 | 29216 ft | 395 kts | 120° |
| 2026-05-05 07:32 | 47.44426 | -0.67812 | 29585 ft | 397 kts | 120° |
| 2026-05-05 07:33 | 47.43053 | -0.64269 | 29936 ft | 398 kts | 120° |
| 2026-05-05 07:33 | 47.41674 | -0.60719 | 30226 ft | 400 kts | 120° |
| 2026-05-05 07:33 | 47.40280 | -0.57145 | 30479 ft | 402 kts | 120° |
| 2026-05-05 07:33 | 47.38878 | -0.53557 | 30722 ft | 405 kts | 120° |
| 2026-05-05 07:34 | 47.37467 | -0.49948 | 30949 ft | 407 kts | 121° |
| 2026-05-05 07:34 | 47.36047 | -0.46317 | 31204 ft | 409 kts | 121° |
| 2026-05-05 07:34 | 47.34626 | -0.42682 | 31546 ft | 409 kts | 121° |
| 2026-05-05 07:34 | 47.33203 | -0.39046 | 31866 ft | 409 kts | 121° |
| 2026-05-05 07:35 | 47.31780 | -0.35413 | 32184 ft | 410 kts | 121° |
| 2026-05-05 07:35 | 47.30357 | -0.31778 | 32487 ft | 410 kts | 121° |
| 2026-05-05 07:35 | 47.28928 | -0.28136 | 32789 ft | 411 kts | 122° |
| 2026-05-05 07:35 | 47.27495 | -0.24496 | 32883 ft | 412 kts | 122° |
| 2026-05-05 07:36 | 47.24612 | -0.17202 | 32885 ft | 412 kts | 122° |
| 2026-05-05 07:36 | 47.21726 | -0.09908 | 32894 ft | 412 kts | 122° |
| 2026-05-05 07:37 | 47.18834 | -0.02621 | 32878 ft | 412 kts | 122° |
| 2026-05-05 07:37 | 47.15940 | 0.04663 | 32893 ft | 413 kts | 122° |
| 2026-05-05 07:38 | 47.13037 | 0.11948 | 32877 ft | 413 kts | 122° |
| 2026-05-05 07:38 | 47.10129 | 0.19239 | 32878 ft | 414 kts | 122° |
| 2026-05-05 07:39 | 47.07218 | 0.26518 | 32876 ft | 414 kts | 122° |
| 2026-05-05 07:39 | 47.04294 | 0.33798 | 32868 ft | 414 kts | 122° |
| 2026-05-05 07:40 | 47.01355 | 0.41071 | 32862 ft | 415 kts | 122° |
| 2026-05-05 07:40 | 46.98415 | 0.48342 | 32862 ft | 415 kts | 122° |
| 2026-05-05 07:41 | 46.95471 | 0.55610 | 32862 ft | 415 kts | 123° |
| 2026-05-05 07:41 | 46.92520 | 0.62881 | 32874 ft | 416 kts | 123° |
| 2026-05-05 07:42 | 46.89563 | 0.70147 | 32869 ft | 416 kts | 123° |
| 2026-05-05 07:42 | 46.86597 | 0.77402 | 32877 ft | 416 kts | 123° |
| 2026-05-05 07:43 | 46.85117 | 0.81017 | 33393 ft | 411 kts | 123° |
| 2026-05-05 07:43 | 46.83656 | 0.84575 | 33924 ft | 407 kts | 124° |
| 2026-05-05 07:43 | 46.82203 | 0.88109 | 34260 ft | 406 kts | 124° |
| 2026-05-05 07:43 | 46.80747 | 0.91652 | 34520 ft | 407 kts | 124° |
| 2026-05-05 07:44 | 46.79286 | 0.95204 | 34750 ft | 409 kts | 124° |
| 2026-05-05 07:44 | 46.77819 | 0.98765 | 34857 ft | 411 kts | 124° |
| 2026-05-05 07:44 | 46.74865 | 1.05904 | 34888 ft | 411 kts | 124° |
| 2026-05-05 07:45 | 46.71911 | 1.13044 | 34887 ft | 412 kts | 124° |
| 2026-05-05 07:45 | 46.68947 | 1.20191 | 34887 ft | 412 kts | 124° |
| 2026-05-05 07:46 | 46.66477 | 1.26117 | 34885 ft | 412 kts | 124° |
| 2026-05-05 07:46 | 46.63506 | 1.33257 | 34880 ft | 412 kts | 124° |
| 2026-05-05 07:47 | 46.60533 | 1.40385 | 34878 ft | 412 kts | 124° |
| 2026-05-05 07:47 | 46.57542 | 1.47502 | 34871 ft | 413 kts | 124° |
| 2026-05-05 07:48 | 46.54554 | 1.54624 | 34874 ft | 413 kts | 124° |
| 2026-05-05 07:48 | 46.51554 | 1.61747 | 34879 ft | 414 kts | 124° |
| 2026-05-05 07:49 | 46.48546 | 1.68872 | 34876 ft | 414 kts | 124° |
| 2026-05-05 07:49 | 46.45533 | 1.75983 | 34873 ft | 414 kts | 124° |
| 2026-05-05 07:50 | 46.42521 | 1.83090 | 34875 ft | 414 kts | 124° |
| 2026-05-05 07:50 | 46.39503 | 1.90190 | 34873 ft | 414 kts | 125° |
| 2026-05-05 07:51 | 46.36470 | 1.97284 | 34873 ft | 414 kts | 125° |
| 2026-05-05 07:51 | 46.33429 | 2.04376 | 34873 ft | 415 kts | 125° |
| 2026-05-05 07:52 | 46.30385 | 2.11479 | 34874 ft | 415 kts | 125° |
| 2026-05-05 07:52 | 46.27337 | 2.18582 | 34877 ft | 416 kts | 125° |
| 2026-05-05 07:53 | 46.24279 | 2.25689 | 34882 ft | 417 kts | 125° |
| 2026-05-05 07:53 | 46.21219 | 2.32785 | 34876 ft | 416 kts | 125° |
| 2026-05-05 07:54 | 46.18194 | 2.39763 | 34872 ft | 417 kts | 126° |
| 2026-05-05 07:54 | 46.15108 | 2.46853 | 34875 ft | 417 kts | 126° |
| 2026-05-05 07:55 | 46.12015 | 2.53950 | 34877 ft | 418 kts | 126° |
| 2026-05-05 07:55 | 46.08920 | 2.61051 | 34880 ft | 418 kts | 126° |
| 2026-05-05 07:56 | 46.05815 | 2.68139 | 34881 ft | 419 kts | 126° |
| 2026-05-05 07:56 | 46.02699 | 2.75230 | 34888 ft | 419 kts | 126° |
| 2026-05-05 07:57 | 45.99393 | 2.82095 | 34882 ft | 414 kts | 136° |
| 2026-05-05 07:57 | 45.95201 | 2.87705 | 34880 ft | 411 kts | 141° |
| 2026-05-05 07:58 | 45.90928 | 2.93173 | 34882 ft | 412 kts | 141° |
| 2026-05-05 07:58 | 45.86642 | 2.98645 | 34881 ft | 412 kts | 142° |
| 2026-05-05 07:59 | 45.82349 | 3.04094 | 34880 ft | 412 kts | 142° |
| 2026-05-05 07:59 | 45.78051 | 3.09534 | 34879 ft | 412 kts | 142° |
| 2026-05-05 08:00 | 45.73753 | 3.14975 | 34882 ft | 413 kts | 142° |
| 2026-05-05 08:00 | 45.69455 | 3.20416 | 34879 ft | 412 kts | 142° |
| 2026-05-05 08:01 | 45.65155 | 3.25843 | 34878 ft | 413 kts | 142° |
| 2026-05-05 08:01 | 45.60835 | 3.31256 | 34876 ft | 413 kts | 142° |
| 2026-05-05 08:02 | 45.56513 | 3.36673 | 34877 ft | 414 kts | 142° |
| 2026-05-05 08:02 | 45.52188 | 3.42101 | 34882 ft | 415 kts | 143° |
| 2026-05-05 08:03 | 45.47856 | 3.47525 | 34879 ft | 414 kts | 143° |
| 2026-05-05 08:03 | 45.43520 | 3.52936 | 34882 ft | 414 kts | 143° |
| 2026-05-05 08:04 | 45.39179 | 3.58339 | 34879 ft | 415 kts | 143° |
| 2026-05-05 08:04 | 45.34834 | 3.63746 | 34885 ft | 415 kts | 143° |
| 2026-05-05 08:05 | 45.30482 | 3.69132 | 34882 ft | 415 kts | 143° |
| 2026-05-05 08:05 | 45.26192 | 3.74645 | 34887 ft | 419 kts | 137° |
| 2026-05-05 08:06 | 45.22787 | 3.81462 | 34892 ft | 426 kts | 128° |
| 2026-05-05 08:06 | 45.19585 | 3.88539 | 34735 ft | 426 kts | 128° |
| 2026-05-05 08:07 | 45.17981 | 3.92071 | 34898 ft | 427 kts | 128° |
| 2026-05-05 08:07 | 45.16364 | 3.95616 | 34908 ft | 428 kts | 128° |
| 2026-05-05 08:07 | 45.13124 | 4.02699 | 34913 ft | 428 kts | 128° |
| 2026-05-05 08:08 | 45.09887 | 4.09764 | 34903 ft | 427 kts | 128° |
| 2026-05-05 08:08 | 45.06654 | 4.16819 | 34893 ft | 427 kts | 128° |
| 2026-05-05 08:09 | 45.03422 | 4.23705 | 34888 ft | 424 kts | 133° |
| 2026-05-05 08:09 | 44.99525 | 4.29875 | 34890 ft | 420 kts | 138° |
| 2026-05-05 08:10 | 44.95565 | 4.35954 | 34897 ft | 421 kts | 138° |
| 2026-05-05 08:10 | 44.91604 | 4.42034 | 34900 ft | 421 kts | 138° |
| 2026-05-05 08:11 | 44.89616 | 4.45081 | 35019 ft | 424 kts | 138° |
| 2026-05-05 08:11 | 44.87617 | 4.48139 | 34913 ft | 423 kts | 139° |
| 2026-05-05 08:11 | 44.83635 | 4.54228 | 34890 ft | 423 kts | 139° |
| 2026-05-05 08:12 | 44.79637 | 4.60323 | 34893 ft | 424 kts | 139° |
| 2026-05-05 08:12 | 44.75620 | 4.66434 | 34891 ft | 426 kts | 139° |
| 2026-05-05 08:13 | 44.71587 | 4.72544 | 34892 ft | 427 kts | 139° |
| 2026-05-05 08:13 | 44.67542 | 4.78663 | 34893 ft | 427 kts | 139° |
| 2026-05-05 08:14 | 44.63498 | 4.84791 | 34894 ft | 428 kts | 139° |
| 2026-05-05 08:14 | 44.59521 | 4.91060 | 34899 ft | 431 kts | 137° |
| 2026-05-05 08:15 | 44.55600 | 4.97420 | 34901 ft | 432 kts | 137° |
| 2026-05-05 08:15 | 44.51646 | 5.03779 | 34830 ft | 437 kts | 138° |
| 2026-05-05 08:16 | 44.49604 | 5.07017 | 33983 ft | 450 kts | 139° |
| 2026-05-05 08:16 | 44.47520 | 5.10312 | 33310 ft | 451 kts | 138° |
| 2026-05-05 08:16 | 44.45457 | 5.13591 | 33039 ft | 448 kts | 138° |
| 2026-05-05 08:16 | 44.43399 | 5.16860 | 32769 ft | 448 kts | 138° |
| 2026-05-05 08:17 | 44.41335 | 5.20131 | 32574 ft | 448 kts | 138° |
| 2026-05-05 08:17 | 44.39271 | 5.23397 | 32239 ft | 448 kts | 138° |
| 2026-05-05 08:17 | 44.37146 | 5.26565 | 31908 ft | 443 kts | 144° |
| 2026-05-05 08:17 | 44.34792 | 5.29305 | 31401 ft | 440 kts | 149° |
| 2026-05-05 08:18 | 44.32381 | 5.31943 | 30913 ft | 440 kts | 149° |
| 2026-05-05 08:18 | 44.29965 | 5.34573 | 30419 ft | 441 kts | 149° |
| 2026-05-05 08:18 | 44.27571 | 5.37168 | 29918 ft | 442 kts | 149° |
| 2026-05-05 08:18 | 44.25151 | 5.39793 | 29387 ft | 439 kts | 149° |
| 2026-05-05 08:19 | 44.22751 | 5.42396 | 28900 ft | 436 kts | 149° |
| 2026-05-05 08:19 | 44.20363 | 5.44989 | 28413 ft | 434 kts | 148° |
| 2026-05-05 08:19 | 44.17992 | 5.47566 | 27925 ft | 431 kts | 148° |
| 2026-05-05 08:19 | 44.15631 | 5.50126 | 27449 ft | 428 kts | 148° |
| 2026-05-05 08:20 | 44.13291 | 5.52661 | 26969 ft | 425 kts | 148° |
| 2026-05-05 08:20 | 44.10965 | 5.55181 | 26493 ft | 422 kts | 148° |
| 2026-05-05 08:20 | 44.08655 | 5.57678 | 26026 ft | 419 kts | 148° |
| 2026-05-05 08:20 | 44.06361 | 5.60150 | 25548 ft | 416 kts | 148° |
| 2026-05-05 08:21 | 44.04078 | 5.62611 | 25087 ft | 413 kts | 148° |
| 2026-05-05 08:21 | 44.01815 | 5.65050 | 24634 ft | 410 kts | 148° |
| 2026-05-05 08:21 | 43.99565 | 5.67473 | 24169 ft | 407 kts | 148° |
| 2026-05-05 08:21 | 43.97337 | 5.69878 | 23721 ft | 405 kts | 147° |
| 2026-05-05 08:22 | 43.95117 | 5.72265 | 23225 ft | 402 kts | 147° |
| 2026-05-05 08:22 | 43.92912 | 5.74634 | 22767 ft | 400 kts | 147° |
| 2026-05-05 08:22 | 43.90719 | 5.76986 | 22324 ft | 397 kts | 147° |
| 2026-05-05 08:22 | 43.88536 | 5.79323 | 21878 ft | 395 kts | 147° |
| 2026-05-05 08:23 | 43.86364 | 5.81645 | 21438 ft | 393 kts | 147° |
| 2026-05-05 08:23 | 43.84205 | 5.83954 | 20995 ft | 391 kts | 147° |
| 2026-05-05 08:23 | 43.82059 | 5.86250 | 20553 ft | 389 kts | 147° |
| 2026-05-05 08:23 | 43.79924 | 5.88529 | 20116 ft | 387 kts | 147° |
| 2026-05-05 08:24 | 43.77800 | 5.90790 | 19684 ft | 384 kts | 147° |
| 2026-05-05 08:24 | 43.75685 | 5.93038 | 19251 ft | 382 kts | 147° |
| 2026-05-05 08:24 | 43.73555 | 5.95302 | 18818 ft | 380 kts | 147° |
| 2026-05-05 08:24 | 43.71466 | 5.97519 | 18392 ft | 378 kts | 147° |
| 2026-05-05 08:25 | 43.69388 | 5.99725 | 17929 ft | 376 kts | 147° |
| 2026-05-05 08:25 | 43.67349 | 6.01889 | 17511 ft | 373 kts | 147° |
| 2026-05-05 08:25 | 43.65295 | 6.04072 | 17080 ft | 372 kts | 147° |
| 2026-05-05 08:25 | 43.63223 | 6.06268 | 16667 ft | 369 kts | 147° |
| 2026-05-05 08:26 | 43.61263 | 6.08481 | 16252 ft | 371 kts | 140° |
| 2026-05-05 08:26 | 43.59602 | 6.11215 | 15837 ft | 374 kts | 128° |
| 2026-05-05 08:26 | 43.58371 | 6.14464 | 15211 ft | 381 kts | 114° |
| 2026-05-05 08:26 | 43.57459 | 6.17856 | 14643 ft | 383 kts | 114° |
| 2026-05-05 08:27 | 43.56511 | 6.21357 | 14041 ft | 386 kts | 114° |
| 2026-05-05 08:27 | 43.55880 | 6.23654 | 13632 ft | 388 kts | 114° |
| 2026-05-05 08:27 | 43.54920 | 6.27129 | 13005 ft | 388 kts | 114° |
| 2026-05-05 08:27 | 43.53657 | 6.31703 | 12402 ft | 380 kts | 114° |
| 2026-05-05 08:28 | 43.53032 | 6.33970 | 12311 ft | 370 kts | 114° |
| 2026-05-05 08:28 | 43.51851 | 6.38243 | 12136 ft | 352 kts | 114° |
| 2026-05-05 08:28 | 43.50989 | 6.41339 | 11982 ft | 341 kts | 114° |
| 2026-05-05 08:28 | 43.50391 | 6.44562 | 11529 ft | 354 kts | 100° |
| 2026-05-05 08:29 | 43.50187 | 6.46850 | 11106 ft | 357 kts | 98° |
| 2026-05-05 08:29 | 43.49919 | 6.50239 | 10606 ft | 355 kts | 98° |
| 2026-05-05 08:29 | 43.49651 | 6.53604 | 10295 ft | 349 kts | 98° |
| 2026-05-05 08:30 | 43.49143 | 6.60003 | 10052 ft | 325 kts | 98° |
| 2026-05-05 08:30 | 43.48903 | 6.63040 | 9929 ft | 314 kts | 98° |
| 2026-05-05 08:30 | 43.48673 | 6.65988 | 9699 ft | 307 kts | 98° |
| 2026-05-05 08:30 | 43.48444 | 6.68896 | 9369 ft | 304 kts | 98° |
| 2026-05-05 08:31 | 43.48215 | 6.71777 | 9013 ft | 302 kts | 98° |
| 2026-05-05 08:31 | 43.47983 | 6.74640 | 8662 ft | 299 kts | 98° |
| 2026-05-05 08:31 | 43.47748 | 6.77482 | 8309 ft | 297 kts | 98° |
| 2026-05-05 08:31 | 43.47512 | 6.80296 | 7968 ft | 295 kts | 98° |
| 2026-05-05 08:32 | 43.47273 | 6.83091 | 7619 ft | 293 kts | 98° |
| 2026-05-05 08:32 | 43.47034 | 6.85841 | 7454 ft | 284 kts | 98° |
| 2026-05-05 08:32 | 43.46801 | 6.88497 | 7328 ft | 275 kts | 98° |
| 2026-05-05 08:32 | 43.46576 | 6.91065 | 7195 ft | 266 kts | 98° |
| 2026-05-05 08:33 | 43.46357 | 6.93549 | 7082 ft | 256 kts | 98° |
| 2026-05-05 08:33 | 43.46147 | 6.95944 | 6934 ft | 249 kts | 98° |
| 2026-05-05 08:33 | 43.45940 | 6.98287 | 6692 ft | 246 kts | 98° |
| 2026-05-05 08:33 | 43.45733 | 7.00610 | 6414 ft | 244 kts | 98° |
| 2026-05-05 08:34 | 43.45525 | 7.02920 | 6098 ft | 243 kts | 98° |
| 2026-05-05 08:34 | 43.45317 | 7.05218 | 5787 ft | 241 kts | 98° |
| 2026-05-05 08:34 | 43.45110 | 7.07498 | 5488 ft | 239 kts | 98° |
| 2026-05-05 08:34 | 43.44902 | 7.09761 | 5180 ft | 238 kts | 98° |
| 2026-05-05 08:35 | 43.44694 | 7.12012 | 4898 ft | 236 kts | 98° |
| 2026-05-05 08:35 | 43.44489 | 7.14245 | 4596 ft | 235 kts | 98° |
| 2026-05-05 08:35 | 43.44285 | 7.16460 | 4417 ft | 230 kts | 98° |
| 2026-05-05 08:35 | 43.44270 | 7.18616 | 4290 ft | 224 kts | 73° |
| 2026-05-05 08:36 | 43.44972 | 7.20468 | 4171 ft | 215 kts | 48° |
| 2026-05-05 08:36 | 43.46119 | 7.21696 | 4091 ft | 205 kts | 21° |
| 2026-05-05 08:36 | 43.47451 | 7.22062 | 3972 ft | 190 kts | 355° |
| 2026-05-05 08:36 | 43.48689 | 7.21640 | 3842 ft | 179 kts | 330° |
| 2026-05-05 08:37 | 43.49644 | 7.20658 | 3708 ft | 170 kts | 309° |
| 2026-05-05 08:37 | 43.50254 | 7.19277 | 3489 ft | 167 kts | 288° |
| 2026-05-05 08:37 | 43.50647 | 7.17773 | 3226 ft | 168 kts | 296° |
| 2026-05-05 08:37 | 43.51384 | 7.16544 | 3085 ft | 169 kts | 319° |
| 2026-05-05 08:38 | 43.52430 | 7.15805 | 2849 ft | 170 kts | 345° |
| 2026-05-05 08:38 | 43.53603 | 7.15633 | 2635 ft | 170 kts | 356° |
| 2026-05-05 08:38 | 43.54764 | 7.15529 | 2414 ft | 169 kts | 356° |
| 2026-05-05 08:38 | 43.55948 | 7.15413 | 2189 ft | 168 kts | 356° |
| 2026-05-05 08:39 | 43.57067 | 7.15528 | 1956 ft | 167 kts | 18° |
| 2026-05-05 08:39 | 43.58056 | 7.16308 | 1741 ft | 164 kts | 45° |
| 2026-05-05 08:39 | 43.58665 | 7.17626 | 1662 ft | 168 kts | 74° |
| 2026-05-05 08:39 | 43.58767 | 7.19202 | 2261 ft | 165 kts | 99° |
| 2026-05-05 08:40 | 43.58362 | 7.20652 | 2811 ft | 166 kts | 126° |
| 2026-05-05 08:40 | 43.57634 | 7.21917 | 3044 ft | 170 kts | 132° |
| 2026-05-05 08:40 | 43.56851 | 7.23134 | 3060 ft | 169 kts | 133° |
| 2026-05-05 08:40 | 43.56068 | 7.24339 | 3060 ft | 169 kts | 133° |
| 2026-05-05 08:41 | 43.55276 | 7.25559 | 3064 ft | 168 kts | 133° |
| 2026-05-05 08:41 | 43.54363 | 7.26526 | 3055 ft | 166 kts | 161° |
| 2026-05-05 08:41 | 43.53238 | 7.26639 | 3059 ft | 164 kts | 197° |
| 2026-05-05 08:41 | 43.52292 | 7.25825 | 3061 ft | 162 kts | 231° |
| 2026-05-05 08:42 | 43.51859 | 7.24406 | 3067 ft | 164 kts | 262° |
| 2026-05-05 08:42 | 43.51719 | 7.22837 | 3066 ft | 165 kts | 262° |
| 2026-05-05 08:42 | 43.51573 | 7.21273 | 3063 ft | 165 kts | 262° |
| 2026-05-05 08:42 | 43.51425 | 7.19708 | 3060 ft | 165 kts | 262° |
| 2026-05-05 08:43 | 43.51343 | 7.18136 | 3052 ft | 166 kts | 277° |
| 2026-05-05 08:43 | 43.51793 | 7.16683 | 3003 ft | 169 kts | 308° |
| 2026-05-05 08:43 | 43.52753 | 7.15783 | 2781 ft | 169 kts | 343° |
| 2026-05-05 08:43 | 43.53921 | 7.15604 | 2557 ft | 170 kts | 356° |
| 2026-05-05 08:44 | 43.55094 | 7.15503 | 2332 ft | 169 kts | 356° |
| 2026-05-05 08:44 | 43.56263 | 7.15398 | 2103 ft | 168 kts | 356° |
| 2026-05-05 08:44 | 43.57424 | 7.15292 | 1881 ft | 166 kts | 357° |
| 2026-05-05 08:44 | 43.58578 | 7.15185 | 1659 ft | 166 kts | 357° |
| 2026-05-05 08:45 | 43.59711 | 7.15081 | 1424 ft | 165 kts | 357° |
| 2026-05-05 08:45 | 43.60842 | 7.15227 | 1164 ft | 163 kts | 17° |
| 2026-05-05 08:45 | 43.61802 | 7.15927 | 948 ft | 153 kts | 42° |
| 2026-05-05 08:45 | 43.62530 | 7.16949 | 722 ft | 144 kts | 45° |
| 2026-05-05 08:46 | 43.63277 | 7.17813 | 502 ft | 138 kts | 40° |
| 2026-05-05 08:46 | 43.64005 | 7.18691 | 224 ft | 137 kts | 47° |
| 2026-05-05 08:46 | 43.64638 | 7.19611 | 166 ft | 134 kts | 49° |
| 2026-05-05 08:46 | 43.65294 | 7.20546 | 47 ft | 133 kts | 49° |
| 2026-05-05 08:47 | 43.65880 | 7.21368 | 21 ft | 87 kts | 44° |
| 2026-05-05 08:47 | 43.66119 | 7.21694 | 21 ft | 23 kts | 45° |
| 2026-05-05 08:47 | 43.66197 | 7.21765 | 21 ft | 12 kts | 353° |
| 2026-05-05 08:47 | 43.66249 | 7.21703 | 21 ft | 8 kts | 315° |
| 2026-05-05 08:48 | 43.66280 | 7.21661 | 21 ft | 4 kts | 315° |
| 2026-05-05 08:48 | 43.66297 | 7.21638 | 21 ft | 4 kts | 315° |
| 2026-05-05 08:48 | 43.66345 | 7.21573 | 21 ft | 14 kts | 315° |
| 2026-05-05 08:48 | 43.66366 | 7.21467 | 21 ft | 13 kts | 244° |
| 2026-05-05 08:49 | 43.66298 | 7.21361 | 21 ft | 16 kts | 225° |
| 2026-05-05 08:49 | 43.66223 | 7.21258 | 21 ft | 14 kts | 225° |
| 2026-05-05 08:49 | 43.66162 | 7.21174 | 21 ft | 11 kts | 225° |
| 2026-05-05 08:49 | 43.66112 | 7.21106 | 21 ft | 9 kts | 225° |
| 2026-05-05 08:50 | 43.66074 | 7.21053 | 21 ft | 7 kts | 225° |
| 2026-05-05 08:50 | 43.66042 | 7.21008 | 21 ft | 10 kts | 225° |
| 2026-05-05 08:50 | 43.65977 | 7.20919 | 21 ft | 13 kts | 233° |
| 2026-05-05 08:50 | 43.65994 | 7.20823 | 21 ft | 11 kts | 329° |
| 2026-05-05 08:51 | 43.66060 | 7.20804 | 24 ft | 9 kts | 351° |
| 2026-05-05 08:51 | 43.66121 | 7.20786 | 23 ft | 8 kts | 325° |
| 2026-05-05 08:51 | 43.66123 | 7.20719 | 21 ft | 7 kts | 261° |
| 2026-05-05 08:51 | 43.66119 | 7.20685 | 21 ft | 2 kts | 261° |
| 2026-05-05 08:52 | 43.66119 | 7.20682 | 21 ft | 0 kts | 261° |